sensor_id;sensor_type;location;lat;lon;timestamp;P1;durP1;ratioP1;P2;durP2;ratioP2
47860;SDS011;33620;52.340;5.984;2022-11-15T00:00:41;45.85;;;24.55;;
47860;SDS011;33620;52.340;5.984;2022-11-15T00:03:06;41.80;;;21.10;;
47860;SDS011;33620;52.340;5.984;2022-11-15T00:05:34;50.60;;;25.58;;
47860;SDS011;33620;52.340;5.984;2022-11-15T00:08:00;47.67;;;25.10;;
47860;SDS011;33620;52.340;5.984;2022-11-15T00:10:26;38.20;;;20.02;;
47860;SDS011;33620;52.340;5.984;2022-11-15T00:12:51;51.47;;;25.55;;
47860;SDS011;33620;52.340;5.984;2022-11-15T00:15:16;49.58;;;25.02;;
47860;SDS011;33620;52.340;5.984;2022-11-15T00:17:42;44.05;;;22.45;;
47860;SDS011;33620;52.340;5.984;2022-11-15T00:20:07;51.58;;;25.17;;
47860;SDS011;33620;52.340;5.984;2022-11-15T00:22:33;48.67;;;24.88;;
47860;SDS011;33620;52.340;5.984;2022-11-15T00:24:58;48.95;;;25.70;;
47860;SDS011;33620;52.340;5.984;2022-11-15T00:27:24;44.22;;;23.30;;
47860;SDS011;33620;52.340;5.984;2022-11-15T00:29:49;54.63;;;25.30;;
47860;SDS011;33620;52.340;5.984;2022-11-15T00:32:14;49.92;;;25.33;;
47860;SDS011;33620;52.340;5.984;2022-11-15T00:34:40;55.65;;;26.73;;
47860;SDS011;33620;52.340;5.984;2022-11-15T00:37:06;52.00;;;24.50;;
47860;SDS011;33620;52.340;5.984;2022-11-15T00:39:31;51.00;;;25.65;;
47860;SDS011;33620;52.340;5.984;2022-11-15T00:41:56;50.72;;;26.55;;
47860;SDS011;33620;52.340;5.984;2022-11-15T00:44:22;54.42;;;27.95;;
47860;SDS011;33620;52.340;5.984;2022-11-15T00:46:47;54.90;;;25.50;;
47860;SDS011;33620;52.340;5.984;2022-11-15T00:49:12;50.67;;;25.20;;
47860;SDS011;33620;52.340;5.984;2022-11-15T00:51:38;46.13;;;23.30;;
47860;SDS011;33620;52.340;5.984;2022-11-15T00:54:03;46.72;;;22.30;;
47860;SDS011;33620;52.340;5.984;2022-11-15T00:56:29;45.97;;;22.83;;
47860;SDS011;33620;52.340;5.984;2022-11-15T00:58:54;55.55;;;25.08;;
47860;SDS011;33620;52.340;5.984;2022-11-15T01:01:19;51.00;;;24.83;;
47860;SDS011;33620;52.340;5.984;2022-11-15T01:03:45;61.38;;;29.63;;
47860;SDS011;33620;52.340;5.984;2022-11-15T01:06:10;54.78;;;26.00;;
47860;SDS011;33620;52.340;5.984;2022-11-15T01:08:37;63.63;;;28.42;;
47860;SDS011;33620;52.340;5.984;2022-11-15T01:11:04;63.60;;;29.20;;
47860;SDS011;33620;52.340;5.984;2022-11-15T01:13:32;64.47;;;28.15;;
47860;SDS011;33620;52.340;5.984;2022-11-15T01:15:59;49.70;;;23.83;;
47860;SDS011;33620;52.340;5.984;2022-11-15T01:18:30;71.05;;;29.80;;
47860;SDS011;33620;52.340;5.984;2022-11-15T01:20:56;70.68;;;31.40;;
47860;SDS011;33620;52.340;5.984;2022-11-15T01:23:21;73.93;;;30.88;;
47860;SDS011;33620;52.340;5.984;2022-11-15T01:25:46;66.28;;;29.17;;
47860;SDS011;33620;52.340;5.984;2022-11-15T01:28:12;75.18;;;31.55;;
47860;SDS011;33620;52.340;5.984;2022-11-15T01:30:37;67.72;;;30.63;;
47860;SDS011;33620;52.340;5.984;2022-11-15T01:33:03;77.30;;;32.70;;
47860;SDS011;33620;52.340;5.984;2022-11-15T01:35:28;70.63;;;30.45;;
47860;SDS011;33620;52.340;5.984;2022-11-15T01:37:53;58.97;;;27.13;;
47860;SDS011;33620;52.340;5.984;2022-11-15T01:40:19;65.78;;;29.23;;
47860;SDS011;33620;52.340;5.984;2022-11-15T01:42:44;67.25;;;29.42;;
47860;SDS011;33620;52.340;5.984;2022-11-15T01:45:13;63.28;;;29.67;;
47860;SDS011;33620;52.340;5.984;2022-11-15T01:47:40;80.90;;;32.33;;
47860;SDS011;33620;52.340;5.984;2022-11-15T01:50:12;67.82;;;29.42;;
47860;SDS011;33620;52.340;5.984;2022-11-15T01:52:41;70.38;;;29.60;;
47860;SDS011;33620;52.340;5.984;2022-11-15T01:57:41;77.10;;;31.60;;
47860;SDS011;33620;52.340;5.984;2022-11-15T02:00:09;71.75;;;29.33;;
47860;SDS011;33620;52.340;5.984;2022-11-15T02:02:35;80.70;;;32.10;;
47860;SDS011;33620;52.340;5.984;2022-11-15T02:05:02;82.60;;;32.47;;
47860;SDS011;33620;52.340;5.984;2022-11-15T02:07:28;60.40;;;28.48;;
47860;SDS011;33620;52.340;5.984;2022-11-15T02:09:54;86.43;;;34.10;;
47860;SDS011;33620;52.340;5.984;2022-11-15T02:12:21;95.30;;;36.15;;
47860;SDS011;33620;52.340;5.984;2022-11-15T02:14:49;58.05;;;28.50;;
47860;SDS011;33620;52.340;5.984;2022-11-15T02:17:29;78.78;;;34.13;;
47860;SDS011;33620;52.340;5.984;2022-11-15T02:29:07;57.38;;;27.20;;
47860;SDS011;33620;52.340;5.984;2022-11-15T02:39:31;56.55;;;27.73;;
47860;SDS011;33620;52.340;5.984;2022-11-15T02:42:16;72.70;;;32.10;;
47860;SDS011;33620;52.340;5.984;2022-11-15T02:45:05;63.80;;;29.30;;
47860;SDS011;33620;52.340;5.984;2022-11-15T02:47:36;75.40;;;33.35;;
47860;SDS011;33620;52.340;5.984;2022-11-15T02:50:08;102.07;;;37.55;;
47860;SDS011;33620;52.340;5.984;2022-11-15T02:52:37;71.43;;;33.22;;
47860;SDS011;33620;52.340;5.984;2022-11-15T02:55:02;82.43;;;33.60;;
47860;SDS011;33620;52.340;5.984;2022-11-15T03:13:44;103.65;;;40.90;;
47860;SDS011;33620;52.340;5.984;2022-11-15T03:16:26;98.07;;;40.63;;
47860;SDS011;33620;52.340;5.984;2022-11-15T03:18:59;90.15;;;36.05;;
47860;SDS011;33620;52.340;5.984;2022-11-15T03:21:39;92.07;;;36.92;;
47860;SDS011;33620;52.340;5.984;2022-11-15T03:24:05;110.15;;;41.17;;
47860;SDS011;33620;52.340;5.984;2022-11-15T03:26:33;87.68;;;39.15;;
47860;SDS011;33620;52.340;5.984;2022-11-15T03:29:04;97.88;;;37.88;;
47860;SDS011;33620;52.340;5.984;2022-11-15T03:31:34;89.55;;;39.10;;
47860;SDS011;33620;52.340;5.984;2022-11-15T03:34:15;110.78;;;42.45;;
47860;SDS011;33620;52.340;5.984;2022-11-15T03:36:46;76.28;;;36.53;;
47860;SDS011;33620;52.340;5.984;2022-11-15T03:39:14;96.13;;;39.03;;
47860;SDS011;33620;52.340;5.984;2022-11-15T03:49:53;102.85;;;43.53;;
47860;SDS011;33620;52.340;5.984;2022-11-15T03:52:23;87.55;;;38.15;;
47860;SDS011;33620;52.340;5.984;2022-11-15T03:54:58;102.38;;;42.63;;
47860;SDS011;33620;52.340;5.984;2022-11-15T03:57:25;77.13;;;36.40;;
47860;SDS011;33620;52.340;5.984;2022-11-15T03:59:51;70.68;;;36.45;;
47860;SDS011;33620;52.340;5.984;2022-11-15T04:02:16;85.40;;;39.47;;
47860;SDS011;33620;52.340;5.984;2022-11-15T04:04:41;93.15;;;42.03;;
47860;SDS011;33620;52.340;5.984;2022-11-15T04:07:07;67.97;;;35.95;;
47860;SDS011;33620;52.340;5.984;2022-11-15T04:09:32;75.50;;;38.22;;
47860;SDS011;33620;52.340;5.984;2022-11-15T04:11:58;71.95;;;35.58;;
47860;SDS011;33620;52.340;5.984;2022-11-15T04:14:23;97.43;;;43.15;;
47860;SDS011;33620;52.340;5.984;2022-11-15T04:16:48;87.70;;;40.63;;
47860;SDS011;33620;52.340;5.984;2022-11-15T04:19:14;95.20;;;41.70;;
47860;SDS011;33620;52.340;5.984;2022-11-15T04:21:58;73.80;;;37.15;;
47860;SDS011;33620;52.340;5.984;2022-11-15T04:24:41;86.13;;;39.72;;
47860;SDS011;33620;52.340;5.984;2022-11-15T04:27:07;82.15;;;38.20;;
47860;SDS011;33620;52.340;5.984;2022-11-15T04:29:32;111.53;;;43.78;;
47860;SDS011;33620;52.340;5.984;2022-11-15T04:32:01;85.75;;;40.17;;
47860;SDS011;33620;52.340;5.984;2022-11-15T04:34:31;86.80;;;40.55;;
47860;SDS011;33620;52.340;5.984;2022-11-15T04:36:57;94.90;;;41.22;;
47860;SDS011;33620;52.340;5.984;2022-11-15T04:39:38;85.78;;;40.20;;
47860;SDS011;33620;52.340;5.984;2022-11-15T04:42:08;109.82;;;44.47;;
47860;SDS011;33620;52.340;5.984;2022-11-15T04:44:34;118.10;;;45.53;;
47860;SDS011;33620;52.340;5.984;2022-11-15T04:47:00;89.95;;;41.08;;
47860;SDS011;33620;52.340;5.984;2022-11-15T04:49:25;102.40;;;41.78;;
47860;SDS011;33620;52.340;5.984;2022-11-15T04:51:51;101.97;;;41.05;;
47860;SDS011;33620;52.340;5.984;2022-11-15T04:54:16;71.25;;;36.83;;
47860;SDS011;33620;52.340;5.984;2022-11-15T04:56:42;78.40;;;37.67;;
47860;SDS011;33620;52.340;5.984;2022-11-15T04:59:07;67.15;;;33.60;;
47860;SDS011;33620;52.340;5.984;2022-11-15T05:01:33;96.90;;;40.50;;
47860;SDS011;33620;52.340;5.984;2022-11-15T05:03:58;68.32;;;34.05;;
47860;SDS011;33620;52.340;5.984;2022-11-15T05:06:42;61.97;;;31.80;;
47860;SDS011;33620;52.340;5.984;2022-11-15T05:09:07;80.63;;;38.17;;
47860;SDS011;33620;52.340;5.984;2022-11-15T05:11:33;62.33;;;31.90;;
47860;SDS011;33620;52.340;5.984;2022-11-15T05:13:58;86.80;;;38.97;;
47860;SDS011;33620;52.340;5.984;2022-11-15T05:16:24;101.75;;;42.50;;
47860;SDS011;33620;52.340;5.984;2022-11-15T05:18:52;71.65;;;36.47;;
47860;SDS011;33620;52.340;5.984;2022-11-15T05:21:18;74.70;;;36.60;;
47860;SDS011;33620;52.340;5.984;2022-11-15T05:23:44;98.15;;;38.97;;
47860;SDS011;33620;52.340;5.984;2022-11-15T05:26:09;105.55;;;44.42;;
47860;SDS011;33620;52.340;5.984;2022-11-15T05:28:35;85.25;;;39.00;;
47860;SDS011;33620;52.340;5.984;2022-11-15T05:31:02;80.10;;;39.25;;
47860;SDS011;33620;52.340;5.984;2022-11-15T05:33:28;131.38;;;46.88;;
47860;SDS011;33620;52.340;5.984;2022-11-15T05:35:54;72.43;;;36.45;;
47860;SDS011;33620;52.340;5.984;2022-11-15T05:38:25;78.57;;;35.30;;
47860;SDS011;33620;52.340;5.984;2022-11-15T05:40:50;86.88;;;39.28;;
47860;SDS011;33620;52.340;5.984;2022-11-15T05:43:16;88.00;;;41.03;;
47860;SDS011;33620;52.340;5.984;2022-11-15T05:45:42;64.20;;;33.45;;
47860;SDS011;33620;52.340;5.984;2022-11-15T05:48:07;66.50;;;34.63;;
47860;SDS011;33620;52.340;5.984;2022-11-15T05:50:35;86.95;;;39.03;;
47860;SDS011;33620;52.340;5.984;2022-11-15T05:53:03;70.70;;;35.65;;
47860;SDS011;33620;52.340;5.984;2022-11-15T05:55:29;74.68;;;38.33;;
47860;SDS011;33620;52.340;5.984;2022-11-15T05:57:55;106.32;;;41.25;;
47860;SDS011;33620;52.340;5.984;2022-11-15T06:00:20;90.28;;;40.80;;
47860;SDS011;33620;52.340;5.984;2022-11-15T06:02:46;62.58;;;33.90;;
47860;SDS011;33620;52.340;5.984;2022-11-15T06:05:11;63.90;;;35.08;;
47860;SDS011;33620;52.340;5.984;2022-11-15T06:07:36;75.18;;;36.15;;
47860;SDS011;33620;52.340;5.984;2022-11-15T06:10:02;69.80;;;36.08;;
47860;SDS011;33620;52.340;5.984;2022-11-15T06:12:27;89.50;;;38.97;;
47860;SDS011;33620;52.340;5.984;2022-11-15T06:14:53;98.00;;;38.90;;
47860;SDS011;33620;52.340;5.984;2022-11-15T06:17:18;60.40;;;32.13;;
47860;SDS011;33620;52.340;5.984;2022-11-15T06:19:43;65.60;;;34.08;;
47860;SDS011;33620;52.340;5.984;2022-11-15T06:22:09;71.45;;;36.97;;
47860;SDS011;33620;52.340;5.984;2022-11-15T06:24:34;83.45;;;38.28;;
47860;SDS011;33620;52.340;5.984;2022-11-15T06:27:00;56.40;;;31.63;;
47860;SDS011;33620;52.340;5.984;2022-11-15T06:29:25;76.45;;;35.42;;
47860;SDS011;33620;52.340;5.984;2022-11-15T06:31:50;80.32;;;38.97;;
47860;SDS011;33620;52.340;5.984;2022-11-15T06:34:16;69.20;;;35.80;;
47860;SDS011;33620;52.340;5.984;2022-11-15T06:36:41;66.40;;;33.17;;
47860;SDS011;33620;52.340;5.984;2022-11-15T06:39:06;62.35;;;32.65;;
47860;SDS011;33620;52.340;5.984;2022-11-15T06:41:35;70.05;;;35.60;;
47860;SDS011;33620;52.340;5.984;2022-11-15T06:44:01;99.68;;;40.28;;
47860;SDS011;33620;52.340;5.984;2022-11-15T06:46:27;65.32;;;34.38;;
47860;SDS011;33620;52.340;5.984;2022-11-15T06:48:52;60.20;;;32.55;;
47860;SDS011;33620;52.340;5.984;2022-11-15T06:51:18;85.63;;;38.78;;
47860;SDS011;33620;52.340;5.984;2022-11-15T06:53:44;84.90;;;37.63;;
47860;SDS011;33620;52.340;5.984;2022-11-15T06:56:09;79.65;;;35.33;;
47860;SDS011;33620;52.340;5.984;2022-11-15T06:58:35;80.55;;;35.00;;
47860;SDS011;33620;52.340;5.984;2022-11-15T07:01:04;84.00;;;38.15;;
47860;SDS011;33620;52.340;5.984;2022-11-15T07:03:33;59.55;;;31.75;;
47860;SDS011;33620;52.340;5.984;2022-11-15T07:06:00;61.80;;;33.25;;
47860;SDS011;33620;52.340;5.984;2022-11-15T07:08:26;70.90;;;35.33;;
47860;SDS011;33620;52.340;5.984;2022-11-15T07:10:53;81.78;;;35.92;;
47860;SDS011;33620;52.340;5.984;2022-11-15T07:13:18;82.03;;;36.40;;
47860;SDS011;33620;52.340;5.984;2022-11-15T07:15:44;74.05;;;34.70;;
47860;SDS011;33620;52.340;5.984;2022-11-15T07:18:09;97.55;;;39.55;;
47860;SDS011;33620;52.340;5.984;2022-11-15T07:20:34;107.43;;;41.70;;
47860;SDS011;33620;52.340;5.984;2022-11-15T07:23:00;138.27;;;44.30;;
47860;SDS011;33620;52.340;5.984;2022-11-15T07:25:27;69.22;;;34.30;;
47860;SDS011;33620;52.340;5.984;2022-11-15T07:27:56;104.90;;;42.00;;
47860;SDS011;33620;52.340;5.984;2022-11-15T07:30:22;83.43;;;39.30;;
47860;SDS011;33620;52.340;5.984;2022-11-15T07:32:52;109.82;;;41.33;;
47860;SDS011;33620;52.340;5.984;2022-11-15T07:35:25;93.43;;;43.55;;
47860;SDS011;33620;52.340;5.984;2022-11-15T07:37:53;101.68;;;42.35;;
47860;SDS011;33620;52.340;5.984;2022-11-15T07:40:19;97.03;;;42.75;;
47860;SDS011;33620;52.340;5.984;2022-11-15T07:42:45;76.82;;;37.22;;
47860;SDS011;33620;52.340;5.984;2022-11-15T07:45:20;81.38;;;38.60;;
47860;SDS011;33620;52.340;5.984;2022-11-15T07:47:50;53.10;;;29.73;;
47860;SDS011;33620;52.340;5.984;2022-11-15T07:50:16;93.75;;;41.72;;
47860;SDS011;33620;52.340;5.984;2022-11-15T07:52:42;66.18;;;34.63;;
47860;SDS011;33620;52.340;5.984;2022-11-15T07:55:08;116.43;;;43.22;;
47860;SDS011;33620;52.340;5.984;2022-11-15T07:57:34;86.03;;;39.53;;
47860;SDS011;33620;52.340;5.984;2022-11-15T07:59:59;101.28;;;42.97;;
47860;SDS011;33620;52.340;5.984;2022-11-15T08:02:25;106.32;;;43.33;;
47860;SDS011;33620;52.340;5.984;2022-11-15T08:04:50;68.53;;;35.30;;
47860;SDS011;33620;52.340;5.984;2022-11-15T08:07:15;64.90;;;33.42;;
47860;SDS011;33620;52.340;5.984;2022-11-15T08:09:41;89.13;;;41.22;;
47860;SDS011;33620;52.340;5.984;2022-11-15T08:12:06;116.78;;;45.92;;
47860;SDS011;33620;52.340;5.984;2022-11-15T08:14:32;92.95;;;41.38;;
47860;SDS011;33620;52.340;5.984;2022-11-15T08:16:57;70.07;;;36.10;;
47860;SDS011;33620;52.340;5.984;2022-11-15T08:19:23;105.57;;;42.78;;
47860;SDS011;33620;52.340;5.984;2022-11-15T08:21:48;107.60;;;43.88;;
47860;SDS011;33620;52.340;5.984;2022-11-15T08:24:13;102.03;;;44.10;;
47860;SDS011;33620;52.340;5.984;2022-11-15T08:26:39;82.35;;;39.65;;
47860;SDS011;33620;52.340;5.984;2022-11-15T08:29:05;94.88;;;42.40;;
47860;SDS011;33620;52.340;5.984;2022-11-15T08:31:33;65.45;;;35.33;;
47860;SDS011;33620;52.340;5.984;2022-11-15T08:33:59;81.13;;;39.78;;
47860;SDS011;33620;52.340;5.984;2022-11-15T08:36:25;75.15;;;36.80;;
47860;SDS011;33620;52.340;5.984;2022-11-15T08:38:50;85.05;;;39.90;;
47860;SDS011;33620;52.340;5.984;2022-11-15T08:41:34;88.63;;;39.63;;
47860;SDS011;33620;52.340;5.984;2022-11-15T08:44:02;75.30;;;38.25;;
47860;SDS011;33620;52.340;5.984;2022-11-15T08:46:27;98.95;;;40.65;;
47860;SDS011;33620;52.340;5.984;2022-11-15T08:48:53;82.25;;;38.38;;
47860;SDS011;33620;52.340;5.984;2022-11-15T08:51:18;119.07;;;48.00;;
47860;SDS011;33620;52.340;5.984;2022-11-15T08:53:44;101.07;;;42.65;;
47860;SDS011;33620;52.340;5.984;2022-11-15T08:56:10;91.45;;;42.70;;
47860;SDS011;33620;52.340;5.984;2022-11-15T08:58:37;81.55;;;39.75;;
47860;SDS011;33620;52.340;5.984;2022-11-15T09:01:03;80.88;;;40.67;;
47860;SDS011;33620;52.340;5.984;2022-11-15T09:03:29;103.95;;;42.53;;
47860;SDS011;33620;52.340;5.984;2022-11-15T09:05:58;77.18;;;39.40;;
47860;SDS011;33620;52.340;5.984;2022-11-15T09:08:25;76.60;;;39.40;;
47860;SDS011;33620;52.340;5.984;2022-11-15T09:10:54;101.90;;;41.35;;
47860;SDS011;33620;52.340;5.984;2022-11-15T09:13:20;76.43;;;37.78;;
47860;SDS011;33620;52.340;5.984;2022-11-15T09:15:45;72.20;;;35.97;;
47860;SDS011;33620;52.340;5.984;2022-11-15T09:18:10;64.30;;;33.65;;
47860;SDS011;33620;52.340;5.984;2022-11-15T09:20:36;58.90;;;32.70;;
47860;SDS011;33620;52.340;5.984;2022-11-15T09:23:02;75.15;;;38.10;;
47860;SDS011;33620;52.340;5.984;2022-11-15T09:25:28;62.35;;;33.45;;
47860;SDS011;33620;52.340;5.984;2022-11-15T09:27:54;67.45;;;35.35;;
47860;SDS011;33620;52.340;5.984;2022-11-15T09:30:20;58.63;;;30.65;;
47860;SDS011;33620;52.340;5.984;2022-11-15T09:32:46;50.22;;;27.95;;
47860;SDS011;33620;52.340;5.984;2022-11-15T09:35:11;53.30;;;27.83;;
47860;SDS011;33620;52.340;5.984;2022-11-15T09:37:36;80.80;;;36.15;;
47860;SDS011;33620;52.340;5.984;2022-11-15T09:40:02;43.13;;;25.33;;
47860;SDS011;33620;52.340;5.984;2022-11-15T09:50:38;51.85;;;26.50;;
47860;SDS011;33620;52.340;5.984;2022-11-15T09:53:12;46.28;;;24.70;;
47860;SDS011;33620;52.340;5.984;2022-11-15T09:55:47;45.35;;;24.35;;
47860;SDS011;33620;52.340;5.984;2022-11-15T10:00:51;52.17;;;24.50;;
47860;SDS011;33620;52.340;5.984;2022-11-15T10:03:28;43.85;;;24.13;;
47860;SDS011;33620;52.340;5.984;2022-11-15T10:06:00;47.65;;;23.60;;
47860;SDS011;33620;52.340;5.984;2022-11-15T10:08:31;43.22;;;22.70;;
47860;SDS011;33620;52.340;5.984;2022-11-15T10:11:21;41.47;;;22.30;;
47860;SDS011;33620;52.340;5.984;2022-11-15T10:13:49;44.78;;;22.85;;
47860;SDS011;33620;52.340;5.984;2022-11-15T10:24:45;31.23;;;17.45;;
47860;SDS011;33620;52.340;5.984;2022-11-15T10:27:15;34.83;;;18.65;;
47860;SDS011;33620;52.340;5.984;2022-11-15T10:29:43;28.25;;;16.75;;
47860;SDS011;33620;52.340;5.984;2022-11-15T10:32:14;28.58;;;16.13;;
47860;SDS011;33620;52.340;5.984;2022-11-15T10:34:41;26.80;;;14.65;;
47860;SDS011;33620;52.340;5.984;2022-11-15T10:37:06;25.52;;;13.82;;
47860;SDS011;33620;52.340;5.984;2022-11-15T10:39:32;24.23;;;13.50;;
47860;SDS011;33620;52.340;5.984;2022-11-15T10:42:17;24.80;;;13.07;;
47860;SDS011;33620;52.340;5.984;2022-11-15T10:44:52;25.38;;;13.48;;
47860;SDS011;33620;52.340;5.984;2022-11-15T10:47:28;27.90;;;13.07;;
47860;SDS011;33620;52.340;5.984;2022-11-15T10:50:11;21.95;;;12.20;;
47860;SDS011;33620;52.340;5.984;2022-11-15T10:52:57;22.20;;;11.38;;
47860;SDS011;33620;52.340;5.984;2022-11-15T10:55:26;23.30;;;12.35;;
47860;SDS011;33620;52.340;5.984;2022-11-15T10:57:55;23.42;;;12.82;;
47860;SDS011;33620;52.340;5.984;2022-11-15T11:00:45;25.23;;;12.35;;
47860;SDS011;33620;52.340;5.984;2022-11-15T11:03:31;24.52;;;11.55;;
47860;SDS011;33620;52.340;5.984;2022-11-15T11:06:05;22.15;;;11.20;;
47860;SDS011;33620;52.340;5.984;2022-11-15T11:08:38;23.75;;;11.48;;
47860;SDS011;33620;52.340;5.984;2022-11-15T11:11:05;19.02;;;9.98;;
47860;SDS011;33620;52.340;5.984;2022-11-15T11:13:34;20.52;;;11.13;;
47860;SDS011;33620;52.340;5.984;2022-11-15T11:21:46;18.55;;;10.25;;
47860;SDS011;33620;52.340;5.984;2022-11-15T11:30:10;17.75;;;9.10;;
47860;SDS011;33620;52.340;5.984;2022-11-15T11:35:29;19.25;;;8.35;;
47860;SDS011;33620;52.340;5.984;2022-11-15T11:40:28;17.02;;;7.53;;
47860;SDS011;33620;52.340;5.984;2022-11-15T11:46:00;14.80;;;6.82;;
47860;SDS011;33620;52.340;5.984;2022-11-15T11:48:48;13.82;;;7.03;;
47860;SDS011;33620;52.340;5.984;2022-11-15T11:51:25;12.07;;;5.50;;
47860;SDS011;33620;52.340;5.984;2022-11-15T11:54:06;9.93;;;5.30;;
47860;SDS011;33620;52.340;5.984;2022-11-15T11:56:47;11.60;;;5.60;;
47860;SDS011;33620;52.340;5.984;2022-11-15T12:02:15;12.30;;;5.53;;
47860;SDS011;33620;52.340;5.984;2022-11-15T12:04:47;10.88;;;5.45;;
47860;SDS011;33620;52.340;5.984;2022-11-15T12:07:21;11.38;;;5.55;;
47860;SDS011;33620;52.340;5.984;2022-11-15T12:12:58;12.63;;;5.25;;
47860;SDS011;33620;52.340;5.984;2022-11-15T12:18:20;10.27;;;5.10;;
47860;SDS011;33620;52.340;5.984;2022-11-15T12:20:55;10.38;;;4.85;;
47860;SDS011;33620;52.340;5.984;2022-11-15T12:23:28;10.05;;;5.38;;
47860;SDS011;33620;52.340;5.984;2022-11-15T12:28:45;10.48;;;4.22;;
47860;SDS011;33620;52.340;5.984;2022-11-15T12:31:17;8.73;;;3.78;;
47860;SDS011;33620;52.340;5.984;2022-11-15T12:33:48;9.60;;;3.63;;
47860;SDS011;33620;52.340;5.984;2022-11-15T12:38:50;8.00;;;3.25;;
47860;SDS011;33620;52.340;5.984;2022-11-15T12:41:20;6.55;;;3.42;;
47860;SDS011;33620;52.340;5.984;2022-11-15T12:43:47;8.23;;;3.63;;
47860;SDS011;33620;52.340;5.984;2022-11-15T13:02:17;6.30;;;2.72;;
47860;SDS011;33620;52.340;5.984;2022-11-15T13:04:46;8.55;;;2.92;;
47860;SDS011;33620;52.340;5.984;2022-11-15T13:08:33;9.95;;;3.00;;
47860;SDS011;33620;52.340;5.984;2022-11-15T13:10:30;3.55;;;1.98;;
47860;SDS011;33620;52.340;5.984;2022-11-15T13:12:58;9.27;;;3.05;;
47860;SDS011;33620;52.340;5.984;2022-11-15T13:18:18;7.20;;;2.97;;
47860;SDS011;33620;52.340;5.984;2022-11-15T13:20:44;8.20;;;2.58;;
47860;SDS011;33620;52.340;5.984;2022-11-15T13:23:11;5.45;;;2.53;;
47860;SDS011;33620;52.340;5.984;2022-11-15T13:28:36;8.70;;;2.58;;
47860;SDS011;33620;52.340;5.984;2022-11-15T13:31:45;4.32;;;1.92;;
47860;SDS011;33620;52.340;5.984;2022-11-15T13:34:24;3.65;;;2.00;;
47860;SDS011;33620;52.340;5.984;2022-11-15T13:36:52;6.82;;;2.22;;
47860;SDS011;33620;52.340;5.984;2022-11-15T13:39:31;6.65;;;2.28;;
47860;SDS011;33620;52.340;5.984;2022-11-15T13:41:57;7.15;;;2.20;;
47860;SDS011;33620;52.340;5.984;2022-11-15T13:44:24;3.35;;;1.77;;
47860;SDS011;33620;52.340;5.984;2022-11-15T13:49:37;4.60;;;2.10;;
47860;SDS011;33620;52.340;5.984;2022-11-15T13:52:04;7.70;;;2.13;;
47860;SDS011;33620;52.340;5.984;2022-11-15T13:57:03;7.82;;;2.00;;
47860;SDS011;33620;52.340;5.984;2022-11-15T13:59:51;7.70;;;1.95;;
47860;SDS011;33620;52.340;5.984;2022-11-15T14:02:40;7.93;;;2.17;;
47860;SDS011;33620;52.340;5.984;2022-11-15T14:07:37;6.30;;;2.05;;
47860;SDS011;33620;52.340;5.984;2022-11-15T14:12:52;6.20;;;1.90;;
47860;SDS011;33620;52.340;5.984;2022-11-15T14:15:34;4.10;;;1.58;;
47860;SDS011;33620;52.340;5.984;2022-11-15T14:18:01;5.60;;;1.95;;
47860;SDS011;33620;52.340;5.984;2022-11-15T14:23:17;2.83;;;1.92;;
47860;SDS011;33620;52.340;5.984;2022-11-15T14:25:54;7.78;;;2.20;;
47860;SDS011;33620;52.340;5.984;2022-11-15T14:30:50;8.85;;;2.28;;
47860;SDS011;33620;52.340;5.984;2022-11-15T14:33:18;7.63;;;2.20;;
47860;SDS011;33620;52.340;5.984;2022-11-15T14:35:46;4.78;;;2.20;;
47860;SDS011;33620;52.340;5.984;2022-11-15T14:38:11;6.57;;;2.03;;
47860;SDS011;33620;52.340;5.984;2022-11-15T14:40:37;5.47;;;2.22;;
47860;SDS011;33620;52.340;5.984;2022-11-15T14:43:02;5.32;;;2.00;;
47860;SDS011;33620;52.340;5.984;2022-11-15T14:45:27;6.80;;;2.83;;
47860;SDS011;33620;52.340;5.984;2022-11-15T14:47:53;4.72;;;2.15;;
47860;SDS011;33620;52.340;5.984;2022-11-15T14:50:19;6.38;;;2.60;;
47860;SDS011;33620;52.340;5.984;2022-11-15T14:52:46;8.23;;;2.45;;
47860;SDS011;33620;52.340;5.984;2022-11-15T14:55:20;7.22;;;2.30;;
47860;SDS011;33620;52.340;5.984;2022-11-15T14:57:48;7.00;;;2.85;;
47860;SDS011;33620;52.340;5.984;2022-11-15T15:00:14;6.43;;;3.00;;
47860;SDS011;33620;52.340;5.984;2022-11-15T15:02:40;8.38;;;2.33;;
47860;SDS011;33620;52.340;5.984;2022-11-15T15:07:46;8.38;;;2.97;;
47860;SDS011;33620;52.340;5.984;2022-11-15T15:10:12;8.88;;;3.08;;
47860;SDS011;33620;52.340;5.984;2022-11-15T15:12:38;9.20;;;3.65;;
47860;SDS011;33620;52.340;5.984;2022-11-15T15:15:04;7.28;;;3.08;;
47860;SDS011;33620;52.340;5.984;2022-11-15T15:17:30;10.43;;;3.25;;
47860;SDS011;33620;52.340;5.984;2022-11-15T15:19:56;10.95;;;3.30;;
47860;SDS011;33620;52.340;5.984;2022-11-15T15:22:21;5.32;;;3.00;;
47860;SDS011;33620;52.340;5.984;2022-11-15T15:24:47;5.88;;;2.80;;
47860;SDS011;33620;52.340;5.984;2022-11-15T15:27:13;9.32;;;3.70;;
47860;SDS011;33620;52.340;5.984;2022-11-15T15:29:39;8.45;;;3.00;;
47860;SDS011;33620;52.340;5.984;2022-11-15T15:32:05;7.13;;;3.05;;
47860;SDS011;33620;52.340;5.984;2022-11-15T15:34:30;6.03;;;3.58;;
47860;SDS011;33620;52.340;5.984;2022-11-15T15:39:50;10.98;;;3.47;;
47860;SDS011;33620;52.340;5.984;2022-11-15T15:42:19;7.38;;;2.65;;
47860;SDS011;33620;52.340;5.984;2022-11-15T15:44:46;7.45;;;2.92;;
47860;SDS011;33620;52.340;5.984;2022-11-15T15:47:15;6.63;;;3.15;;
47860;SDS011;33620;52.340;5.984;2022-11-15T15:49:43;8.50;;;2.78;;
47860;SDS011;33620;52.340;5.984;2022-11-15T15:52:08;8.15;;;3.10;;
47860;SDS011;33620;52.340;5.984;2022-11-15T15:54:34;5.65;;;3.00;;
47860;SDS011;33620;52.340;5.984;2022-11-15T15:56:59;10.07;;;3.10;;
47860;SDS011;33620;52.340;5.984;2022-11-15T15:59:25;10.82;;;2.75;;
47860;SDS011;33620;52.340;5.984;2022-11-15T16:01:50;7.63;;;2.72;;
47860;SDS011;33620;52.340;5.984;2022-11-15T16:04:15;5.22;;;2.90;;
47860;SDS011;33620;52.340;5.984;2022-11-15T16:06:41;9.48;;;3.15;;
47860;SDS011;33620;52.340;5.984;2022-11-15T16:09:13;7.35;;;3.13;;
47860;SDS011;33620;52.340;5.984;2022-11-15T16:11:40;7.15;;;2.75;;
47860;SDS011;33620;52.340;5.984;2022-11-15T16:14:06;9.68;;;2.80;;
47860;SDS011;33620;52.340;5.984;2022-11-15T16:16:32;10.15;;;2.90;;
47860;SDS011;33620;52.340;5.984;2022-11-15T16:18:58;8.50;;;3.00;;
47860;SDS011;33620;52.340;5.984;2022-11-15T16:21:25;9.40;;;2.97;;
47860;SDS011;33620;52.340;5.984;2022-11-15T16:23:51;7.65;;;3.08;;
47860;SDS011;33620;52.340;5.984;2022-11-15T16:26:20;7.88;;;2.55;;
47860;SDS011;33620;52.340;5.984;2022-11-15T16:28:48;11.27;;;2.60;;
47860;SDS011;33620;52.340;5.984;2022-11-15T16:31:14;4.93;;;2.40;;
47860;SDS011;33620;52.340;5.984;2022-11-15T16:33:41;10.10;;;2.60;;
47860;SDS011;33620;52.340;5.984;2022-11-15T16:36:25;7.25;;;2.28;;
47860;SDS011;33620;52.340;5.984;2022-11-15T16:38:51;7.68;;;2.55;;
47860;SDS011;33620;52.340;5.984;2022-11-15T16:41:17;7.95;;;2.65;;
47860;SDS011;33620;52.340;5.984;2022-11-15T16:43:46;9.20;;;3.10;;
47860;SDS011;33620;52.340;5.984;2022-11-15T16:46:14;3.38;;;2.15;;
47860;SDS011;33620;52.340;5.984;2022-11-15T16:51:13;8.75;;;2.72;;
47860;SDS011;33620;52.340;5.984;2022-11-15T16:53:39;8.45;;;2.38;;
47860;SDS011;33620;52.340;5.984;2022-11-15T16:58:44;4.40;;;1.88;;
47860;SDS011;33620;52.340;5.984;2022-11-15T17:01:29;7.57;;;2.28;;